createdAt,value
2018-04-23T00:01:05.980Z,51.40
2018-04-23T00:04:09.236Z,51.26
2018-04-23T00:07:12.511Z,51.33
2018-04-23T00:10:16.551Z,51.10
2018-04-23T00:13:19.845Z,51.00
2018-04-23T00:16:23.867Z,51.85
2018-04-23T00:19:27.137Z,52.36
2018-04-23T00:22:30.406Z,51.10
2018-04-23T00:25:33.696Z,51.28
2018-04-23T00:28:36.976Z,51.34
2018-04-23T00:31:40.282Z,51.13
2018-04-23T00:34:43.700Z,52.01
2018-04-23T00:37:46.955Z,53.67
2018-04-23T00:40:50.281Z,52.40
2018-04-23T00:43:53.556Z,52.94
2018-04-23T00:46:57.456Z,51.62
2018-04-23T00:50:00.763Z,52.24
2018-04-23T00:53:21.937Z,52.49
2018-04-23T00:56:25.221Z,52.75
2018-04-23T00:59:28.507Z,53.77
2018-04-23T01:02:31.812Z,52.93
2018-04-23T01:05:35.854Z,52.25
2018-04-23T01:08:39.133Z,52.16
2018-04-23T01:11:42.410Z,52.21
2018-04-23T01:14:45.673Z,51.87
2018-04-23T01:17:49.703Z,52.60
2018-04-23T01:20:52.969Z,52.31
2018-04-23T01:23:56.990Z,53.09
2018-04-23T01:27:01.317Z,53.45
2018-04-23T01:30:05.328Z,52.66
2018-04-23T01:33:09.356Z,52.76
2018-04-23T01:36:12.627Z,52.31
2018-04-23T01:39:15.923Z,51.99
2018-04-23T01:42:19.202Z,51.76
2018-04-23T01:45:22.486Z,52.68
2018-04-23T01:48:25.735Z,52.27
2018-04-23T01:51:29.794Z,52.50
2018-04-23T01:54:33.066Z,52.50
2018-04-23T01:57:36.332Z,52.28
2018-04-23T02:00:39.610Z,52.40
2018-04-23T02:03:42.867Z,52.37
2018-04-23T02:06:46.161Z,52.31
2018-04-23T02:09:49.433Z,51.85
2018-04-23T02:12:54.704Z,52.48
2018-04-23T02:15:58.044Z,52.68
2018-04-23T02:19:01.565Z,52.59
2018-04-23T02:22:04.826Z,52.06
2018-04-23T02:25:08.093Z,52.00
2018-04-23T02:28:11.401Z,52.33
2018-04-23T02:31:14.680Z,52.96
2018-04-23T02:34:17.977Z,52.42
2018-04-23T02:37:22.037Z,52.70
2018-04-23T02:40:25.289Z,52.55
2018-04-23T02:43:28.566Z,51.90
2018-04-23T02:46:31.827Z,52.93
2018-04-23T02:49:35.172Z,52.79
2018-04-23T02:52:38.541Z,52.75
2018-04-23T02:55:41.820Z,52.16
2018-04-23T02:58:45.201Z,52.46
2018-04-23T03:01:48.554Z,52.45
2018-04-23T03:04:51.822Z,53.17
2018-04-23T03:07:55.090Z,52.41
2018-04-23T03:10:58.366Z,52.25
2018-04-23T03:14:02.415Z,52.52
2018-04-23T03:17:05.691Z,52.62
2018-04-23T03:20:08.938Z,52.66
2018-04-23T03:23:12.204Z,52.83
2018-04-23T03:26:15.470Z,53.32
2018-04-23T03:29:19.507Z,53.17
2018-04-23T03:32:22.899Z,53.23
2018-04-23T03:35:26.154Z,53.85
2018-04-23T03:38:29.415Z,53.77
2018-04-23T03:41:32.882Z,54.50
2018-04-23T03:44:36.937Z,54.37
2018-04-23T03:47:40.193Z,54.88
2018-04-23T03:50:44.237Z,55.06
2018-04-23T03:53:47.755Z,55.37
2018-04-23T03:56:51.036Z,56.27
2018-04-23T03:59:54.329Z,55.81
2018-04-23T04:02:57.662Z,55.95
2018-04-23T04:06:00.941Z,55.86
2018-04-23T04:09:04.250Z,56.09
2018-04-23T04:16:13.070Z,55.59
2018-04-23T04:19:17.138Z,56.37
2018-04-23T04:22:20.497Z,56.75
2018-04-23T04:25:23.795Z,56.75
2018-04-23T04:28:27.066Z,56.65
2018-04-23T04:31:30.515Z,57.64
2018-04-23T04:34:33.804Z,57.51
2018-04-23T04:37:41.228Z,57.07
2018-04-23T04:40:44.519Z,57.85
2018-04-23T04:43:47.852Z,58.42
2018-04-23T04:46:53.413Z,57.94
2018-04-23T04:49:57.594Z,57.66
2018-04-23T04:53:01.364Z,58.21
2018-04-23T04:56:05.420Z,57.69
2018-04-23T04:59:08.681Z,58.22
2018-04-23T05:02:12.738Z,56.74
2018-04-23T05:05:16.043Z,56.41
2018-04-23T05:08:19.326Z,56.63
2018-04-23T05:11:22.652Z,56.72
2018-04-23T05:14:26.088Z,57.46
2018-04-23T05:17:30.123Z,57.03
2018-04-23T05:20:33.412Z,56.93
2018-04-23T05:23:36.729Z,56.43
2018-04-23T05:26:40.718Z,56.05
2018-04-23T05:29:44.764Z,54.63
2018-04-23T05:32:48.143Z,54.37
2018-04-23T05:35:51.428Z,54.49
2018-04-23T05:38:55.497Z,54.23
2018-04-23T05:41:58.754Z,53.24
2018-04-23T05:45:03.010Z,51.68
2018-04-23T05:48:06.412Z,49.77
2018-04-23T05:51:09.695Z,48.92
2018-04-23T05:54:12.985Z,47.89
2018-04-23T05:57:16.291Z,48.19
2018-04-23T06:00:19.565Z,46.50
2018-04-23T06:03:22.847Z,45.43
2018-04-23T06:06:26.877Z,43.95
2018-04-23T06:09:30.896Z,42.07
2018-04-23T06:12:34.158Z,42.24
2018-04-23T06:15:38.246Z,40.27
2018-04-23T06:18:41.525Z,41.37
2018-04-23T06:21:44.827Z,41.00
2018-04-23T06:24:48.135Z,39.81
2018-04-23T06:27:51.413Z,39.83
2018-04-23T06:30:54.715Z,39.26
2018-04-23T06:33:58.003Z,39.22
2018-04-23T06:37:01.314Z,39.25
2018-04-23T06:40:04.591Z,39.58
2018-04-23T06:43:07.953Z,40.51
2018-04-23T06:46:11.247Z,40.89
2018-04-23T06:49:14.498Z,41.12
2018-04-23T06:52:17.818Z,41.48
2018-04-23T06:55:22.153Z,41.74
2018-04-23T06:58:31.609Z,38.59
2018-04-23T07:02:06.128Z,37.16
2018-04-23T07:05:12.111Z,38.45
2018-04-23T07:08:15.414Z,35.47
2018-04-23T07:11:19.449Z,35.42
2018-04-23T07:14:22.776Z,37.30
2018-04-23T07:17:26.207Z,37.48
2018-04-23T07:20:29.473Z,34.44
2018-04-23T07:23:32.877Z,32.44
2018-04-23T07:26:36.205Z,33.10
2018-04-23T07:29:39.483Z,32.37
2018-04-23T07:32:42.765Z,35.87
2018-04-23T07:35:46.050Z,35.00
2018-04-23T07:38:49.327Z,32.79
2018-04-23T07:41:53.363Z,31.75
2018-04-23T07:44:56.682Z,29.85
2018-04-23T07:47:59.960Z,30.64
2018-04-23T07:51:03.305Z,29.67
2018-04-23T07:54:06.579Z,30.41
2018-04-23T07:57:09.819Z,32.57
2018-04-23T08:00:13.855Z,30.72
2018-04-23T08:03:17.147Z,30.08
2018-04-23T08:06:20.404Z,30.92
2018-04-23T08:09:23.689Z,29.34
2018-04-23T08:12:27.779Z,29.54
2018-04-23T08:15:31.062Z,31.67
2018-04-23T08:18:34.339Z,30.59
2018-04-23T08:21:38.385Z,28.68
2018-04-23T08:24:41.686Z,32.88
2018-04-23T08:27:44.958Z,31.93
2018-04-23T08:30:49.005Z,33.41
2018-04-23T08:33:52.305Z,27.87
2018-04-23T08:36:55.549Z,28.56
2018-04-23T08:39:58.894Z,30.62
2018-04-23T08:43:02.181Z,29.34
2018-04-23T08:46:06.882Z,29.65
2018-04-23T08:49:10.147Z,30.67
2018-04-23T08:52:13.842Z,28.74
2018-04-23T08:55:17.138Z,27.84
2018-04-23T08:58:20.398Z,28.25
2018-04-23T09:01:24.423Z,27.58
2018-04-23T09:04:27.820Z,28.02
2018-04-23T09:07:31.118Z,27.48
2018-04-23T09:10:35.159Z,30.12
2018-04-23T09:13:38.481Z,32.98
2018-04-23T09:16:41.732Z,31.02
2018-04-23T09:19:45.017Z,29.05
2018-04-23T09:22:49.039Z,30.31
2018-04-23T09:25:52.297Z,30.74
2018-04-23T09:28:55.625Z,30.56
2018-04-23T09:31:59.692Z,32.08
2018-04-23T09:35:03.749Z,33.34
2018-04-23T09:38:07.876Z,31.56
2018-04-23T09:41:11.902Z,31.32
2018-04-23T09:44:15.197Z,34.55
2018-04-23T09:47:18.519Z,29.55
2018-04-23T09:50:21.795Z,29.72
2018-04-23T09:53:25.116Z,29.33
2018-04-23T09:56:28.402Z,29.40
2018-04-23T09:59:32.517Z,27.91
2018-04-23T10:02:35.818Z,32.63
2018-04-23T10:05:39.325Z,26.78
2018-04-23T10:08:42.624Z,26.93
2018-04-23T10:11:46.647Z,27.54
2018-04-23T10:14:50.206Z,28.26
2018-04-23T10:17:53.448Z,28.62
2018-04-23T10:20:57.887Z,26.91
2018-04-23T10:24:01.132Z,28.03
2018-04-23T10:27:04.387Z,27.35
2018-04-23T10:30:07.675Z,27.75
2018-04-23T10:33:10.965Z,24.89
2018-04-23T10:36:14.253Z,24.39
2018-04-23T10:39:17.611Z,25.55
2018-04-23T10:42:20.883Z,24.92
2018-04-23T10:45:24.173Z,25.90
2018-04-23T10:48:27.456Z,25.24
2018-04-23T10:51:30.725Z,26.72
2018-04-23T10:54:34.830Z,27.51
2018-04-23T10:57:38.139Z,30.36
2018-04-23T11:00:41.417Z,27.85
2018-04-23T11:03:44.715Z,26.90
2018-04-23T11:06:48.018Z,27.96
2018-04-23T11:09:51.304Z,29.61
2018-04-23T11:12:55.976Z,28.68
2018-04-23T11:15:59.299Z,25.83
2018-04-23T11:19:02.599Z,26.68
2018-04-23T11:22:05.856Z,29.24
2018-04-23T11:25:09.160Z,26.38
2018-04-23T11:28:13.192Z,29.23
2018-04-23T11:31:16.479Z,28.56
2018-04-23T11:34:20.529Z,35.68
2018-04-23T11:37:23.792Z,27.34
2018-04-23T11:40:27.913Z,27.07
2018-04-23T11:43:31.988Z,28.90
2018-04-23T11:46:35.247Z,27.41
2018-04-23T11:49:38.519Z,28.96
2018-04-23T11:52:42.544Z,28.09
2018-04-23T11:55:45.826Z,27.43
2018-04-23T11:58:49.868Z,27.93
2018-04-23T12:01:53.219Z,26.42
2018-04-23T12:04:56.505Z,26.48
2018-04-23T12:07:59.806Z,26.59
2018-04-23T12:11:03.077Z,27.83
2018-04-23T12:14:06.350Z,26.30
2018-04-23T12:17:09.689Z,28.71
2018-04-23T12:20:12.974Z,29.99
2018-04-23T12:23:16.434Z,29.03
2018-04-23T12:26:20.019Z,29.87
2018-04-23T12:29:24.564Z,31.33
2018-04-23T12:32:28.071Z,32.09
2018-04-23T12:35:31.428Z,29.62
2018-04-23T12:38:34.710Z,33.22
2018-04-23T12:41:38.016Z,34.73
2018-04-23T12:44:41.272Z,31.80
2018-04-23T12:47:44.538Z,32.90
2018-04-23T12:50:47.826Z,33.59
2018-04-23T12:53:51.081Z,33.74
2018-04-23T12:56:54.358Z,31.69
2018-04-23T12:59:57.647Z,31.34
2018-04-23T13:03:10.274Z,32.63
2018-04-23T13:06:14.417Z,33.67
2018-04-23T13:09:17.717Z,35.38
2018-04-23T13:12:21.031Z,31.85
2018-04-23T13:15:24.328Z,33.85
2018-04-23T13:18:28.404Z,32.52
2018-04-23T13:21:31.648Z,32.56
2018-04-23T13:24:35.036Z,33.61
2018-04-23T13:27:38.326Z,34.11
2018-04-23T13:30:41.630Z,33.76
2018-04-23T13:33:44.922Z,34.04
2018-04-23T13:36:48.260Z,33.26
2018-04-23T13:39:51.530Z,32.29
2018-04-23T13:42:55.315Z,30.92
2018-04-23T13:45:58.621Z,31.42
2018-04-23T13:49:01.932Z,31.37
2018-04-23T13:52:05.170Z,32.41
2018-04-23T13:55:09.198Z,32.21
2018-04-23T13:58:13.268Z,34.38
2018-04-23T14:01:16.535Z,34.09
2018-04-23T14:04:19.798Z,35.02
2018-04-23T14:07:23.819Z,36.74
2018-04-23T14:10:27.883Z,38.36
2018-04-23T14:13:31.846Z,40.13
2018-04-23T14:16:35.894Z,40.95
2018-04-23T14:19:39.282Z,40.47
2018-04-23T14:22:42.578Z,41.35
2018-04-23T14:25:45.859Z,42.12
2018-04-23T14:28:49.945Z,42.58
2018-04-23T14:31:53.245Z,43.93
2018-04-23T14:34:56.519Z,44.70
2018-04-23T14:38:00.812Z,44.19
2018-04-23T14:41:04.890Z,45.51
2018-04-23T14:44:08.621Z,46.08
2018-04-23T14:47:12.703Z,48.60
2018-04-23T14:50:15.990Z,48.66
2018-04-23T14:53:19.251Z,47.22
2018-04-23T14:56:22.550Z,48.03
2018-04-23T14:59:25.940Z,48.04
2018-04-23T15:02:29.093Z,47.33
2018-04-23T15:05:32.479Z,47.19
2018-04-23T15:08:36.127Z,48.48
2018-04-23T15:11:40.998Z,48.29
2018-04-23T15:14:44.345Z,48.26
2018-04-23T15:17:47.709Z,47.85
2018-04-23T15:20:51.566Z,47.67
2018-04-23T15:23:55.041Z,48.00
2018-04-23T15:26:58.940Z,48.25
2018-04-23T15:30:02.214Z,47.86
2018-04-23T15:33:05.495Z,47.18
2018-04-23T15:36:08.804Z,46.35
2018-04-23T15:39:12.965Z,47.03
2018-04-23T15:42:16.336Z,47.28
2018-04-23T15:45:19.803Z,46.94
2018-04-23T15:48:23.898Z,47.30
2018-04-23T15:51:27.214Z,47.38
2018-04-23T15:54:31.241Z,48.81
2018-04-23T15:57:34.631Z,48.58
2018-04-23T16:00:38.699Z,47.86
2018-04-23T16:03:41.948Z,47.49
2018-04-23T16:06:45.257Z,48.10
2018-04-23T16:09:48.949Z,48.78
2018-04-23T16:12:53.707Z,50.17
2018-04-23T16:15:56.983Z,49.17
2018-04-23T16:19:00.998Z,50.11
2018-04-23T16:22:04.357Z,50.84
2018-04-23T16:25:07.732Z,50.83
2018-04-23T16:28:11.250Z,51.76
2018-04-23T16:31:14.523Z,50.55
2018-04-23T16:34:17.871Z,51.10
2018-04-23T16:37:21.144Z,51.79
2018-04-23T16:40:24.433Z,50.95
2018-04-23T16:43:28.293Z,50.43
2018-04-23T16:46:32.373Z,51.15
2018-04-23T16:49:35.634Z,50.97
2018-04-23T16:52:39.197Z,50.18
2018-04-23T16:55:42.460Z,49.80
2018-04-23T16:58:45.788Z,50.26
2018-04-23T17:01:49.054Z,50.00
2018-04-23T17:04:52.313Z,49.39
2018-04-23T17:07:56.361Z,49.12
2018-04-23T17:11:00.440Z,48.85
2018-04-23T17:14:04.478Z,47.95
2018-04-23T17:17:07.809Z,48.60
2018-04-23T17:20:11.155Z,48.28
2018-04-23T17:23:15.296Z,48.86
2018-04-23T17:26:18.674Z,49.68
2018-04-23T17:29:21.993Z,50.16
2018-04-23T17:32:25.303Z,50.36
2018-04-23T17:35:28.671Z,50.72
2018-04-23T17:38:32.833Z,51.21
2018-04-23T17:41:36.093Z,50.78
2018-04-23T17:44:39.395Z,51.76
2018-04-23T17:47:43.270Z,50.88
2018-04-23T17:50:46.695Z,51.09
2018-04-23T17:53:50.813Z,51.17
2018-04-23T17:56:54.951Z,51.38
2018-04-23T17:59:58.319Z,51.49
2018-04-23T18:03:02.496Z,51.89
2018-04-23T18:06:06.860Z,51.97
2018-04-23T18:09:10.896Z,51.98
2018-04-23T18:12:14.906Z,51.87
2018-04-23T18:15:18.207Z,52.25
2018-04-23T18:18:21.485Z,52.27
2018-04-23T18:21:25.578Z,52.49
2018-04-23T18:24:28.909Z,52.29
2018-04-23T18:27:32.330Z,52.70
2018-04-23T18:30:35.632Z,52.10
2018-04-23T18:33:39.024Z,52.88
2018-04-23T18:36:42.337Z,52.82
2018-04-23T18:39:45.676Z,53.25
2018-04-23T18:42:48.968Z,53.57
2018-04-23T18:45:52.307Z,53.15
2018-04-23T18:48:55.603Z,54.10
2018-04-23T18:51:59.678Z,54.36
2018-04-23T18:55:03.000Z,53.94
2018-04-23T18:58:06.302Z,53.74
2018-04-23T19:01:09.633Z,53.91
2018-04-23T19:04:12.882Z,54.35
2018-04-23T19:07:16.152Z,54.27
2018-04-23T19:10:19.462Z,54.21
2018-04-23T19:13:23.014Z,54.36
2018-04-23T19:16:27.121Z,54.67
2018-04-23T19:19:31.327Z,54.85
2018-04-23T19:22:34.771Z,55.16
2018-04-23T19:25:38.110Z,55.09
2018-04-23T19:28:41.499Z,54.97
2018-04-23T19:31:45.885Z,55.41
2018-04-23T19:34:49.725Z,56.28
2018-04-23T19:38:10.756Z,56.72
2018-04-23T19:41:14.425Z,56.89
2018-04-23T19:44:18.036Z,56.94
2018-04-23T19:47:21.719Z,56.87
2018-04-23T19:50:25.085Z,57.61
2018-04-23T19:53:28.443Z,57.60
2018-04-23T19:56:31.812Z,57.98
2018-04-23T19:59:35.129Z,57.74
2018-04-23T20:02:38.609Z,58.09
2018-04-23T20:05:41.931Z,57.73
2018-04-23T20:08:46.035Z,58.12
2018-04-23T20:11:49.946Z,58.66
2018-04-23T20:14:53.212Z,58.34
2018-04-23T20:17:56.474Z,58.31
2018-04-23T20:20:59.730Z,58.37
2018-04-23T20:24:02.986Z,58.78
2018-04-23T20:27:06.245Z,59.04
2018-04-23T20:30:09.510Z,59.33
2018-04-23T20:33:13.566Z,58.80
2018-04-23T20:36:16.834Z,58.75
2018-04-23T20:39:20.845Z,59.17
2018-04-23T20:42:24.166Z,59.42
2018-04-23T20:45:27.437Z,60.54
2018-04-23T20:48:31.636Z,61.07
2018-04-23T20:51:35.666Z,61.25
2018-04-23T20:54:39.693Z,61.84
2018-04-23T20:57:42.966Z,62.72
2018-04-23T21:00:47.105Z,64.51
2018-04-23T21:03:50.912Z,64.63
2018-04-23T21:06:54.929Z,65.62
2018-04-23T21:09:59.175Z,66.16
2018-04-23T21:13:02.527Z,66.17
2018-04-23T21:16:06.196Z,67.84
2018-04-23T21:19:09.454Z,68.74
2018-04-23T21:22:13.264Z,69.27
2018-04-23T21:25:17.303Z,70.57
2018-04-23T21:28:20.566Z,70.88
2018-04-23T21:31:24.610Z,71.69
2018-04-23T21:34:27.886Z,71.79
2018-04-23T21:37:32.007Z,71.79
2018-04-23T21:40:35.515Z,72.57
2018-04-23T21:43:39.508Z,72.91
2018-04-23T21:46:42.693Z,73.44
2018-04-23T21:49:45.995Z,72.49
2018-04-23T21:52:50.033Z,73.30
2018-04-23T21:55:53.300Z,73.34
2018-04-23T21:58:56.558Z,73.94
2018-04-23T22:01:59.863Z,72.91
2018-04-23T22:05:03.139Z,73.50
2018-04-23T22:08:06.406Z,73.55
2018-04-23T22:11:10.468Z,74.22
2018-04-23T22:14:13.726Z,74.16
2018-04-23T22:17:17.757Z,75.08
2018-04-23T22:20:21.223Z,75.68
2018-04-23T22:23:24.481Z,75.36
2018-04-23T22:26:27.752Z,76.02
2018-04-23T22:29:31.023Z,76.46
2018-04-23T22:32:35.051Z,75.79
2018-04-23T22:35:39.085Z,76.66
2018-04-23T22:38:42.341Z,76.32
2018-04-23T22:41:45.930Z,76.02
2018-04-23T22:44:49.215Z,76.12
2018-04-23T22:47:52.497Z,76.38
2018-04-23T22:50:55.747Z,76.70
2018-04-23T22:53:59.043Z,77.26
2018-04-23T22:57:03.105Z,77.35
2018-04-23T23:00:06.378Z,77.26
2018-04-23T23:03:10.025Z,77.22
2018-04-23T23:06:13.298Z,77.37
2018-04-23T23:09:16.590Z,77.02
2018-04-23T23:12:19.860Z,77.73
2018-04-23T23:15:23.917Z,77.84
2018-04-23T23:18:27.173Z,77.24
2018-04-23T23:21:31.200Z,77.45
2018-04-23T23:24:34.463Z,78.67
2018-04-23T23:27:37.721Z,77.46
2018-04-23T23:30:41.061Z,77.36
2018-04-23T23:33:44.343Z,77.43
2018-04-23T23:36:47.609Z,77.87
2018-04-23T23:39:51.663Z,78.25
2018-04-23T23:42:55.270Z,78.07
2018-04-23T23:45:58.548Z,78.25
2018-04-23T23:49:01.804Z,77.96
2018-04-23T23:52:05.085Z,77.59
2018-04-23T23:55:09.919Z,77.88
2018-04-23T23:58:13.962Z,78.06
